sensor_id;sensor_type;location;lat;lon;timestamp;temperature;humidity
41344;DHT22;27089;50.022;7.604;2023-05-13T00:02:11;8.20;99.90
41344;DHT22;27089;50.022;7.604;2023-05-13T00:04:38;8.20;99.90
41344;DHT22;27089;50.022;7.604;2023-05-13T00:07:05;8.20;99.90
41344;DHT22;27089;50.022;7.604;2023-05-13T00:09:32;8.10;99.90
41344;DHT22;27089;50.022;7.604;2023-05-13T00:11:59;8.00;99.90
41344;DHT22;27089;50.022;7.604;2023-05-13T00:14:27;7.90;99.90
41344;DHT22;27089;50.022;7.604;2023-05-13T00:16:54;7.90;99.90
41344;DHT22;27089;50.022;7.604;2023-05-13T00:19:23;7.80;99.90
41344;DHT22;27089;50.022;7.604;2023-05-13T00:21:50;7.80;99.90
41344;DHT22;27089;50.022;7.604;2023-05-13T00:24:17;7.90;99.90
41344;DHT22;27089;50.022;7.604;2023-05-13T00:26:44;7.80;99.90
41344;DHT22;27089;50.022;7.604;2023-05-13T00:29:11;7.80;99.90
41344;DHT22;27089;50.022;7.604;2023-05-13T00:31:40;7.70;99.90
41344;DHT22;27089;50.022;7.604;2023-05-13T00:34:07;7.70;99.90
41344;DHT22;27089;50.022;7.604;2023-05-13T00:36:34;7.70;99.90
41344;DHT22;27089;50.022;7.604;2023-05-13T00:39:01;7.80;99.90
41344;DHT22;27089;50.022;7.604;2023-05-13T00:41:28;7.80;99.90
41344;DHT22;27089;50.022;7.604;2023-05-13T00:43:56;7.80;99.90
41344;DHT22;27089;50.022;7.604;2023-05-13T00:46:23;7.90;99.90
41344;DHT22;27089;50.022;7.604;2023-05-13T00:48:51;7.90;99.90
41344;DHT22;27089;50.022;7.604;2023-05-13T00:51:18;7.90;99.90
41344;DHT22;27089;50.022;7.604;2023-05-13T00:53:46;8.00;99.90
41344;DHT22;27089;50.022;7.604;2023-05-13T00:56:17;8.10;99.90
41344;DHT22;27089;50.022;7.604;2023-05-13T00:58:45;8.10;99.90
41344;DHT22;27089;50.022;7.604;2023-05-13T01:01:16;8.10;99.90
41344;DHT22;27089;50.022;7.604;2023-05-13T01:03:55;8.20;99.90
41344;DHT22;27089;50.022;7.604;2023-05-13T01:06:29;8.10;99.90
41344;DHT22;27089;50.022;7.604;2023-05-13T01:09:00;8.10;99.90
41344;DHT22;27089;50.022;7.604;2023-05-13T01:11:33;8.20;99.90
41344;DHT22;27089;50.022;7.604;2023-05-13T01:14:05;8.20;99.90
41344;DHT22;27089;50.022;7.604;2023-05-13T01:16:39;8.20;99.90
41344;DHT22;27089;50.022;7.604;2023-05-13T01:19:22;8.30;99.90
41344;DHT22;27089;50.022;7.604;2023-05-13T01:21:53;8.30;99.90
41344;DHT22;27089;50.022;7.604;2023-05-13T01:24:20;8.30;99.90
41344;DHT22;27089;50.022;7.604;2023-05-13T01:26:47;8.20;99.90
41344;DHT22;27089;50.022;7.604;2023-05-13T01:29:15;8.10;99.90
41344;DHT22;27089;50.022;7.604;2023-05-13T01:31:42;8.10;99.90
41344;DHT22;27089;50.022;7.604;2023-05-13T01:34:10;8.00;99.90
41344;DHT22;27089;50.022;7.604;2023-05-13T01:36:38;8.00;99.90
41344;DHT22;27089;50.022;7.604;2023-05-13T01:39:08;8.10;99.90
41344;DHT22;27089;50.022;7.604;2023-05-13T01:41:36;8.10;99.90
41344;DHT22;27089;50.022;7.604;2023-05-13T01:44:03;8.20;99.90
41344;DHT22;27089;50.022;7.604;2023-05-13T01:46:30;8.20;99.90
41344;DHT22;27089;50.022;7.604;2023-05-13T01:48:57;8.30;99.90
41344;DHT22;27089;50.022;7.604;2023-05-13T01:51:24;8.30;99.90
41344;DHT22;27089;50.022;7.604;2023-05-13T01:53:51;8.30;99.90
41344;DHT22;27089;50.022;7.604;2023-05-13T01:56:20;8.30;99.90
41344;DHT22;27089;50.022;7.604;2023-05-13T01:58:47;8.20;99.90
41344;DHT22;27089;50.022;7.604;2023-05-13T02:01:13;8.30;99.90
41344;DHT22;27089;50.022;7.604;2023-05-13T02:03:41;8.30;99.90
41344;DHT22;27089;50.022;7.604;2023-05-13T02:06:08;8.40;99.90
41344;DHT22;27089;50.022;7.604;2023-05-13T02:08:35;8.50;99.90
41344;DHT22;27089;50.022;7.604;2023-05-13T02:11:02;8.50;99.90
41344;DHT22;27089;50.022;7.604;2023-05-13T02:13:30;8.60;99.90
41344;DHT22;27089;50.022;7.604;2023-05-13T02:15:57;8.70;99.90
41344;DHT22;27089;50.022;7.604;2023-05-13T02:18:24;8.70;99.90
41344;DHT22;27089;50.022;7.604;2023-05-13T02:20:51;8.70;99.90
41344;DHT22;27089;50.022;7.604;2023-05-13T02:23:18;8.70;99.90
41344;DHT22;27089;50.022;7.604;2023-05-13T02:25:45;8.60;99.90
41344;DHT22;27089;50.022;7.604;2023-05-13T02:28:12;8.60;99.90
41344;DHT22;27089;50.022;7.604;2023-05-13T02:30:40;8.60;99.90
41344;DHT22;27089;50.022;7.604;2023-05-13T02:33:07;8.70;99.90
41344;DHT22;27089;50.022;7.604;2023-05-13T02:35:35;8.70;99.90
41344;DHT22;27089;50.022;7.604;2023-05-13T02:38:02;8.70;99.90
41344;DHT22;27089;50.022;7.604;2023-05-13T02:40:29;8.70;99.90
41344;DHT22;27089;50.022;7.604;2023-05-13T02:42:56;8.70;99.90
41344;DHT22;27089;50.022;7.604;2023-05-13T02:45:23;8.70;99.90
41344;DHT22;27089;50.022;7.604;2023-05-13T02:47:51;8.70;99.90
41344;DHT22;27089;50.022;7.604;2023-05-13T02:50:18;8.70;99.90
41344;DHT22;27089;50.022;7.604;2023-05-13T02:52:46;8.70;99.90
41344;DHT22;27089;50.022;7.604;2023-05-13T02:55:13;8.70;99.90
41344;DHT22;27089;50.022;7.604;2023-05-13T02:57:41;8.70;99.90
41344;DHT22;27089;50.022;7.604;2023-05-13T03:00:09;8.70;99.90
41344;DHT22;27089;50.022;7.604;2023-05-13T03:02:37;8.60;99.90
41344;DHT22;27089;50.022;7.604;2023-05-13T03:05:06;8.60;99.90
41344;DHT22;27089;50.022;7.604;2023-05-13T03:07:33;8.60;99.90
41344;DHT22;27089;50.022;7.604;2023-05-13T03:10:00;8.60;99.90
41344;DHT22;27089;50.022;7.604;2023-05-13T03:12:27;8.60;99.90
41344;DHT22;27089;50.022;7.604;2023-05-13T03:14:54;8.60;99.90
41344;DHT22;27089;50.022;7.604;2023-05-13T03:17:21;8.60;99.90
41344;DHT22;27089;50.022;7.604;2023-05-13T03:19:48;8.60;99.90
41344;DHT22;27089;50.022;7.604;2023-05-13T03:22:16;8.70;99.90
41344;DHT22;27089;50.022;7.604;2023-05-13T03:24:43;8.70;99.90
41344;DHT22;27089;50.022;7.604;2023-05-13T03:27:10;8.70;99.90
41344;DHT22;27089;50.022;7.604;2023-05-13T03:29:37;8.80;99.90
41344;DHT22;27089;50.022;7.604;2023-05-13T03:32:04;8.80;99.90
41344;DHT22;27089;50.022;7.604;2023-05-13T03:34:32;8.90;99.90
41344;DHT22;27089;50.022;7.604;2023-05-13T03:37:00;8.80;99.90
41344;DHT22;27089;50.022;7.604;2023-05-13T03:39:29;8.80;99.90
41344;DHT22;27089;50.022;7.604;2023-05-13T03:41:56;8.70;99.90
41344;DHT22;27089;50.022;7.604;2023-05-13T03:44:23;8.60;99.90
41344;DHT22;27089;50.022;7.604;2023-05-13T03:46:50;8.50;99.90
41344;DHT22;27089;50.022;7.604;2023-05-13T03:49:17;8.50;99.90
41344;DHT22;27089;50.022;7.604;2023-05-13T03:51:44;8.50;99.90
41344;DHT22;27089;50.022;7.604;2023-05-13T03:54:11;8.50;99.90
41344;DHT22;27089;50.022;7.604;2023-05-13T03:56:39;8.50;99.90
41344;DHT22;27089;50.022;7.604;2023-05-13T03:59:06;8.50;99.90
41344;DHT22;27089;50.022;7.604;2023-05-13T04:01:34;8.40;99.90
41344;DHT22;27089;50.022;7.604;2023-05-13T04:04:01;8.40;99.90
41344;DHT22;27089;50.022;7.604;2023-05-13T04:06:28;8.40;99.90
41344;DHT22;27089;50.022;7.604;2023-05-13T04:08:56;8.40;99.90
41344;DHT22;27089;50.022;7.604;2023-05-13T04:11:23;8.40;99.90
41344;DHT22;27089;50.022;7.604;2023-05-13T04:13:51;8.40;99.90
41344;DHT22;27089;50.022;7.604;2023-05-13T04:16:18;8.50;99.90
41344;DHT22;27089;50.022;7.604;2023-05-13T04:18:45;8.50;99.90
41344;DHT22;27089;50.022;7.604;2023-05-13T04:21:12;8.50;99.90
41344;DHT22;27089;50.022;7.604;2023-05-13T04:23:39;8.60;99.90
41344;DHT22;27089;50.022;7.604;2023-05-13T04:26:07;8.70;99.90
41344;DHT22;27089;50.022;7.604;2023-05-13T04:28:34;8.80;99.90
41344;DHT22;27089;50.022;7.604;2023-05-13T04:31:02;8.80;99.90
41344;DHT22;27089;50.022;7.604;2023-05-13T04:33:30;8.90;99.90
41344;DHT22;27089;50.022;7.604;2023-05-13T04:35:56;9.00;99.90
41344;DHT22;27089;50.022;7.604;2023-05-13T04:38:23;9.00;99.90
41344;DHT22;27089;50.022;7.604;2023-05-13T04:40:51;9.00;99.90
41344;DHT22;27089;50.022;7.604;2023-05-13T04:43:18;9.00;99.90
41344;DHT22;27089;50.022;7.604;2023-05-13T04:45:46;9.10;99.90
41344;DHT22;27089;50.022;7.604;2023-05-13T04:48:15;9.10;99.90
41344;DHT22;27089;50.022;7.604;2023-05-13T04:50:44;9.10;99.90
41344;DHT22;27089;50.022;7.604;2023-05-13T04:53:12;9.10;99.90
41344;DHT22;27089;50.022;7.604;2023-05-13T04:55:39;9.10;99.90
41344;DHT22;27089;50.022;7.604;2023-05-13T04:58:05;9.10;99.90
41344;DHT22;27089;50.022;7.604;2023-05-13T05:00:32;9.20;99.90
41344;DHT22;27089;50.022;7.604;2023-05-13T05:02:59;9.30;99.90
41344;DHT22;27089;50.022;7.604;2023-05-13T05:05:28;9.40;99.90
41344;DHT22;27089;50.022;7.604;2023-05-13T05:07:55;9.60;99.90
41344;DHT22;27089;50.022;7.604;2023-05-13T05:10:21;9.70;99.90
41344;DHT22;27089;50.022;7.604;2023-05-13T05:12:49;9.90;99.90
41344;DHT22;27089;50.022;7.604;2023-05-13T05:15:16;10.00;99.90
41344;DHT22;27089;50.022;7.604;2023-05-13T05:17:43;10.10;99.90
41344;DHT22;27089;50.022;7.604;2023-05-13T05:20:11;10.20;99.90
41344;DHT22;27089;50.022;7.604;2023-05-13T05:22:40;10.30;99.90
41344;DHT22;27089;50.022;7.604;2023-05-13T05:25:08;10.40;99.90
41344;DHT22;27089;50.022;7.604;2023-05-13T05:27:35;10.50;99.90
41344;DHT22;27089;50.022;7.604;2023-05-13T05:30:02;10.60;99.90
41344;DHT22;27089;50.022;7.604;2023-05-13T05:32:29;10.60;99.90
41344;DHT22;27089;50.022;7.604;2023-05-13T05:34:56;10.80;99.90
41344;DHT22;27089;50.022;7.604;2023-05-13T05:37:26;10.90;99.90
41344;DHT22;27089;50.022;7.604;2023-05-13T05:39:54;11.20;99.90
41344;DHT22;27089;50.022;7.604;2023-05-13T05:42:21;11.80;99.90
41344;DHT22;27089;50.022;7.604;2023-05-13T05:44:48;12.30;99.90
41344;DHT22;27089;50.022;7.604;2023-05-13T05:47:15;12.60;99.90
41344;DHT22;27089;50.022;7.604;2023-05-13T05:49:42;12.90;99.90
41344;DHT22;27089;50.022;7.604;2023-05-13T05:52:09;14.20;99.90
41344;DHT22;27089;50.022;7.604;2023-05-13T05:54:37;14.70;99.90
41344;DHT22;27089;50.022;7.604;2023-05-13T05:57:06;15.10;99.90
41344;DHT22;27089;50.022;7.604;2023-05-13T05:59:33;16.80;99.90
41344;DHT22;27089;50.022;7.604;2023-05-13T06:02:00;18.80;99.90
41344;DHT22;27089;50.022;7.604;2023-05-13T06:04:27;20.70;99.90
41344;DHT22;27089;50.022;7.604;2023-05-13T06:06:54;22.20;99.90
41344;DHT22;27089;50.022;7.604;2023-05-13T06:09:20;23.40;99.90
41344;DHT22;27089;50.022;7.604;2023-05-13T06:11:47;24.60;99.90
41344;DHT22;27089;50.022;7.604;2023-05-13T06:14:16;25.40;99.90
41344;DHT22;27089;50.022;7.604;2023-05-13T06:16:43;26.40;99.90
41344;DHT22;27089;50.022;7.604;2023-05-13T06:19:10;27.30;99.90
41344;DHT22;27089;50.022;7.604;2023-05-13T06:21:37;28.00;99.40
41344;DHT22;27089;50.022;7.604;2023-05-13T06:24:04;28.50;97.80
41344;DHT22;27089;50.022;7.604;2023-05-13T06:26:31;28.90;93.80
41344;DHT22;27089;50.022;7.604;2023-05-13T06:28:58;29.00;90.50
41344;DHT22;27089;50.022;7.604;2023-05-13T06:31:27;28.40;88.80
41344;DHT22;27089;50.022;7.604;2023-05-13T06:33:53;27.50;89.50
41344;DHT22;27089;50.022;7.604;2023-05-13T06:36:20;27.00;90.70
41344;DHT22;27089;50.022;7.604;2023-05-13T06:38:47;25.90;91.20
41344;DHT22;27089;50.022;7.604;2023-05-13T06:41:14;25.80;93.30
41344;DHT22;27089;50.022;7.604;2023-05-13T06:43:41;25.40;94.50
41344;DHT22;27089;50.022;7.604;2023-05-13T06:46:10;25.20;94.40
41344;DHT22;27089;50.022;7.604;2023-05-13T06:48:39;25.00;95.50
41344;DHT22;27089;50.022;7.604;2023-05-13T06:51:06;25.70;96.70
41344;DHT22;27089;50.022;7.604;2023-05-13T06:53:33;26.30;93.20
41344;DHT22;27089;50.022;7.604;2023-05-13T06:55:59;25.50;94.60
41344;DHT22;27089;50.022;7.604;2023-05-13T06:58:26;26.00;91.90
41344;DHT22;27089;50.022;7.604;2023-05-13T07:00:53;26.30;92.00
41344;DHT22;27089;50.022;7.604;2023-05-13T07:03:20;26.10;92.70
41344;DHT22;27089;50.022;7.604;2023-05-13T07:05:48;25.90;92.20
41344;DHT22;27089;50.022;7.604;2023-05-13T07:08:15;25.90;90.90
41344;DHT22;27089;50.022;7.604;2023-05-13T07:10:43;26.10;89.40
41344;DHT22;27089;50.022;7.604;2023-05-13T07:13:10;27.00;90.30
41344;DHT22;27089;50.022;7.604;2023-05-13T07:15:37;27.10;82.00
41344;DHT22;27089;50.022;7.604;2023-05-13T07:18:04;27.50;84.10
41344;DHT22;27089;50.022;7.604;2023-05-13T07:20:32;27.20;82.00
41344;DHT22;27089;50.022;7.604;2023-05-13T07:23:00;27.50;76.90
41344;DHT22;27089;50.022;7.604;2023-05-13T07:25:27;28.30;76.40
41344;DHT22;27089;50.022;7.604;2023-05-13T07:27:54;27.90;75.60
41344;DHT22;27089;50.022;7.604;2023-05-13T07:30:21;28.10;74.60
41344;DHT22;27089;50.022;7.604;2023-05-13T07:32:48;28.50;73.40
41344;DHT22;27089;50.022;7.604;2023-05-13T07:35:15;27.50;71.70
41344;DHT22;27089;50.022;7.604;2023-05-13T07:37:42;27.60;72.60
41344;DHT22;27089;50.022;7.604;2023-05-13T07:40:11;27.60;72.00
41344;DHT22;27089;50.022;7.604;2023-05-13T07:42:39;28.10;69.00
41344;DHT22;27089;50.022;7.604;2023-05-13T07:45:06;27.70;70.20
41344;DHT22;27089;50.022;7.604;2023-05-13T07:47:34;26.10;67.20
41344;DHT22;27089;50.022;7.604;2023-05-13T07:50:01;26.30;70.90
41344;DHT22;27089;50.022;7.604;2023-05-13T07:52:28;26.80;73.60
41344;DHT22;27089;50.022;7.604;2023-05-13T07:54:55;27.10;73.20
41344;DHT22;27089;50.022;7.604;2023-05-13T07:57:23;26.30;69.30
41344;DHT22;27089;50.022;7.604;2023-05-13T07:59:50;26.70;71.10
41344;DHT22;27089;50.022;7.604;2023-05-13T08:02:17;25.50;71.00
41344;DHT22;27089;50.022;7.604;2023-05-13T08:04:44;25.50;73.00
41344;DHT22;27089;50.022;7.604;2023-05-13T08:07:11;26.60;72.50
41344;DHT22;27089;50.022;7.604;2023-05-13T08:09:38;24.70;73.30
41344;DHT22;27089;50.022;7.604;2023-05-13T08:12:05;24.60;74.00
41344;DHT22;27089;50.022;7.604;2023-05-13T08:14:34;25.10;72.90
41344;DHT22;27089;50.022;7.604;2023-05-13T08:17:02;25.60;72.90
41344;DHT22;27089;50.022;7.604;2023-05-13T08:19:29;25.10;74.10
41344;DHT22;27089;50.022;7.604;2023-05-13T08:21:56;25.70;73.60
41344;DHT22;27089;50.022;7.604;2023-05-13T08:24:23;26.30;69.30
41344;DHT22;27089;50.022;7.604;2023-05-13T08:26:50;26.10;70.30
41344;DHT22;27089;50.022;7.604;2023-05-13T08:29:17;26.20;70.60
41344;DHT22;27089;50.022;7.604;2023-05-13T08:31:45;26.60;70.80
41344;DHT22;27089;50.022;7.604;2023-05-13T08:34:12;25.10;72.50
41344;DHT22;27089;50.022;7.604;2023-05-13T08:36:39;23.40;77.50
41344;DHT22;27089;50.022;7.604;2023-05-13T08:39:06;22.80;77.60
41344;DHT22;27089;50.022;7.604;2023-05-13T08:41:33;22.30;83.00
41344;DHT22;27089;50.022;7.604;2023-05-13T08:44:03;22.40;86.60
41344;DHT22;27089;50.022;7.604;2023-05-13T08:46:31;22.60;86.70
41344;DHT22;27089;50.022;7.604;2023-05-13T08:49:00;23.00;88.60
41344;DHT22;27089;50.022;7.604;2023-05-13T08:51:28;23.80;84.60
41344;DHT22;27089;50.022;7.604;2023-05-13T08:53:55;24.50;77.50
41344;DHT22;27089;50.022;7.604;2023-05-13T08:56:22;24.40;77.00
41344;DHT22;27089;50.022;7.604;2023-05-13T08:58:52;24.60;76.10
41344;DHT22;27089;50.022;7.604;2023-05-13T09:01:20;25.10;77.90
41344;DHT22;27089;50.022;7.604;2023-05-13T09:03:54;24.60;76.80
41344;DHT22;27089;50.022;7.604;2023-05-13T09:06:23;24.40;74.50
41344;DHT22;27089;50.022;7.604;2023-05-13T09:08:50;24.70;75.20
41344;DHT22;27089;50.022;7.604;2023-05-13T09:11:18;24.10;72.90
41344;DHT22;27089;50.022;7.604;2023-05-13T09:13:55;24.10;78.60
41344;DHT22;27089;50.022;7.604;2023-05-13T09:16:22;24.80;77.70
41344;DHT22;27089;50.022;7.604;2023-05-13T09:18:56;25.20;73.50
41344;DHT22;27089;50.022;7.604;2023-05-13T09:21:25;24.80;75.40
41344;DHT22;27089;50.022;7.604;2023-05-13T09:24:04;23.90;79.30
41344;DHT22;27089;50.022;7.604;2023-05-13T09:26:32;23.70;83.40
41344;DHT22;27089;50.022;7.604;2023-05-13T09:29:20;24.00;80.10
41344;DHT22;27089;50.022;7.604;2023-05-13T09:31:49;24.20;78.80
41344;DHT22;27089;50.022;7.604;2023-05-13T09:34:24;24.20;77.40
41344;DHT22;27089;50.022;7.604;2023-05-13T09:36:57;25.00;78.50
41344;DHT22;27089;50.022;7.604;2023-05-13T09:39:25;24.70;79.30
41344;DHT22;27089;50.022;7.604;2023-05-13T09:41:52;24.10;79.80
41344;DHT22;27089;50.022;7.604;2023-05-13T09:44:20;23.60;79.60
41344;DHT22;27089;50.022;7.604;2023-05-13T09:46:50;22.60;84.50
41344;DHT22;27089;50.022;7.604;2023-05-13T09:49:17;21.60;90.30
41344;DHT22;27089;50.022;7.604;2023-05-13T09:51:44;21.50;90.40
41344;DHT22;27089;50.022;7.604;2023-05-13T09:54:12;21.20;92.10
41344;DHT22;27089;50.022;7.604;2023-05-13T09:56:39;21.40;92.90
41344;DHT22;27089;50.022;7.604;2023-05-13T09:59:06;21.60;91.60
41344;DHT22;27089;50.022;7.604;2023-05-13T10:01:34;21.70;96.40
41344;DHT22;27089;50.022;7.604;2023-05-13T10:04:01;21.50;98.00
41344;DHT22;27089;50.022;7.604;2023-05-13T10:06:30;21.00;99.40
41344;DHT22;27089;50.022;7.604;2023-05-13T10:08:59;20.90;99.90
41344;DHT22;27089;50.022;7.604;2023-05-13T10:11:29;20.90;99.80
41344;DHT22;27089;50.022;7.604;2023-05-13T10:14:00;20.60;99.90
41344;DHT22;27089;50.022;7.604;2023-05-13T10:16:27;20.00;99.90
41344;DHT22;27089;50.022;7.604;2023-05-13T10:18:56;19.40;99.90
41344;DHT22;27089;50.022;7.604;2023-05-13T10:21:24;19.00;99.90
41344;DHT22;27089;50.022;7.604;2023-05-13T10:23:52;18.90;99.90
41344;DHT22;27089;50.022;7.604;2023-05-13T10:26:19;18.80;99.90
41344;DHT22;27089;50.022;7.604;2023-05-13T10:28:49;18.70;99.90
41344;DHT22;27089;50.022;7.604;2023-05-13T10:31:16;18.70;99.90
41344;DHT22;27089;50.022;7.604;2023-05-13T10:33:43;18.60;99.90
41344;DHT22;27089;50.022;7.604;2023-05-13T10:42:41;19.60;99.90
41344;DHT22;27089;50.022;7.604;2023-05-13T10:45:10;19.60;99.90
41344;DHT22;27089;50.022;7.604;2023-05-13T10:47:37;20.20;99.90
41344;DHT22;27089;50.022;7.604;2023-05-13T10:50:05;20.50;99.90
41344;DHT22;27089;50.022;7.604;2023-05-13T10:52:43;20.30;99.90
41344;DHT22;27089;50.022;7.604;2023-05-13T10:55:17;20.10;99.90
41344;DHT22;27089;50.022;7.604;2023-05-13T10:58:02;20.20;99.90
41344;DHT22;27089;50.022;7.604;2023-05-13T11:00:31;20.20;99.90
41344;DHT22;27089;50.022;7.604;2023-05-13T11:03:11;20.20;99.90
41344;DHT22;27089;50.022;7.604;2023-05-13T11:05:40;19.90;99.90
41344;DHT22;27089;50.022;7.604;2023-05-13T11:08:07;20.40;99.90
41344;DHT22;27089;50.022;7.604;2023-05-13T11:10:34;20.90;99.90
41344;DHT22;27089;50.022;7.604;2023-05-13T11:13:18;21.30;99.90
41344;DHT22;27089;50.022;7.604;2023-05-13T11:15:50;21.30;99.90
41344;DHT22;27089;50.022;7.604;2023-05-13T11:18:17;20.80;99.90
41344;DHT22;27089;50.022;7.604;2023-05-13T11:20:45;20.70;99.90
41344;DHT22;27089;50.022;7.604;2023-05-13T11:23:17;20.40;99.90
41344;DHT22;27089;50.022;7.604;2023-05-13T11:25:44;20.10;99.90
41344;DHT22;27089;50.022;7.604;2023-05-13T11:28:15;19.70;99.90
41344;DHT22;27089;50.022;7.604;2023-05-13T11:30:53;19.50;99.90
41344;DHT22;27089;50.022;7.604;2023-05-13T11:33:21;19.50;99.90
41344;DHT22;27089;50.022;7.604;2023-05-13T11:35:54;19.40;99.90
41344;DHT22;27089;50.022;7.604;2023-05-13T11:38:23;19.30;99.90
41344;DHT22;27089;50.022;7.604;2023-05-13T11:40:50;19.20;99.90
41344;DHT22;27089;50.022;7.604;2023-05-13T11:43:21;19.00;99.90
41344;DHT22;27089;50.022;7.604;2023-05-13T11:45:49;19.10;99.90
41344;DHT22;27089;50.022;7.604;2023-05-13T11:48:20;19.50;99.90
41344;DHT22;27089;50.022;7.604;2023-05-13T11:50:49;19.90;99.90
41344;DHT22;27089;50.022;7.604;2023-05-13T11:53:19;19.80;99.90
41344;DHT22;27089;50.022;7.604;2023-05-13T11:55:47;19.50;99.90
41344;DHT22;27089;50.022;7.604;2023-05-13T11:58:14;19.20;99.90
41344;DHT22;27089;50.022;7.604;2023-05-13T12:00:41;18.90;99.90
41344;DHT22;27089;50.022;7.604;2023-05-13T12:03:10;18.70;99.90
41344;DHT22;27089;50.022;7.604;2023-05-13T12:05:39;18.60;99.90
41344;DHT22;27089;50.022;7.604;2023-05-13T12:08:06;18.40;99.90
41344;DHT22;27089;50.022;7.604;2023-05-13T12:10:41;18.40;99.90
41344;DHT22;27089;50.022;7.604;2023-05-13T12:13:09;18.70;99.90
41344;DHT22;27089;50.022;7.604;2023-05-13T12:15:36;19.10;99.90
41344;DHT22;27089;50.022;7.604;2023-05-13T12:18:04;19.30;99.90
41344;DHT22;27089;50.022;7.604;2023-05-13T12:20:32;19.70;99.90
41344;DHT22;27089;50.022;7.604;2023-05-13T12:23:01;19.90;99.90
41344;DHT22;27089;50.022;7.604;2023-05-13T12:25:40;19.70;99.90
41344;DHT22;27089;50.022;7.604;2023-05-13T12:28:09;20.00;99.90
41344;DHT22;27089;50.022;7.604;2023-05-13T12:30:37;19.70;99.90
41344;DHT22;27089;50.022;7.604;2023-05-13T12:33:04;19.80;99.90
41344;DHT22;27089;50.022;7.604;2023-05-13T12:35:31;19.90;99.90
41344;DHT22;27089;50.022;7.604;2023-05-13T12:38:01;19.40;99.90
41344;DHT22;27089;50.022;7.604;2023-05-13T12:40:29;19.50;99.90
41344;DHT22;27089;50.022;7.604;2023-05-13T12:42:56;19.40;99.90
41344;DHT22;27089;50.022;7.604;2023-05-13T12:45:27;19.70;99.90
41344;DHT22;27089;50.022;7.604;2023-05-13T12:47:54;19.70;99.90
41344;DHT22;27089;50.022;7.604;2023-05-13T12:50:22;19.70;99.90
41344;DHT22;27089;50.022;7.604;2023-05-13T12:52:49;19.70;99.90
41344;DHT22;27089;50.022;7.604;2023-05-13T12:55:18;19.60;99.90
41344;DHT22;27089;50.022;7.604;2023-05-13T12:57:53;20.00;99.90
41344;DHT22;27089;50.022;7.604;2023-05-13T13:00:21;20.10;95.80
41344;DHT22;27089;50.022;7.604;2023-05-13T13:02:48;20.40;97.20
41344;DHT22;27089;50.022;7.604;2023-05-13T13:05:16;20.60;97.30
41344;DHT22;27089;50.022;7.604;2023-05-13T13:07:43;20.50;97.70
41344;DHT22;27089;50.022;7.604;2023-05-13T13:10:10;20.40;99.60
41344;DHT22;27089;50.022;7.604;2023-05-13T13:12:38;20.00;98.20
41344;DHT22;27089;50.022;7.604;2023-05-13T13:15:06;19.60;99.80
41344;DHT22;27089;50.022;7.604;2023-05-13T13:17:33;19.30;99.90
41344;DHT22;27089;50.022;7.604;2023-05-13T13:20:00;18.80;99.90
41344;DHT22;27089;50.022;7.604;2023-05-13T13:22:29;18.60;99.90
41344;DHT22;27089;50.022;7.604;2023-05-13T13:24:56;18.30;99.90
41344;DHT22;27089;50.022;7.604;2023-05-13T13:27:23;18.00;99.90
41344;DHT22;27089;50.022;7.604;2023-05-13T13:29:51;18.00;99.90
41344;DHT22;27089;50.022;7.604;2023-05-13T13:32:18;18.20;99.90
41344;DHT22;27089;50.022;7.604;2023-05-13T13:34:45;18.60;99.90
41344;DHT22;27089;50.022;7.604;2023-05-13T13:37:12;19.00;99.90
41344;DHT22;27089;50.022;7.604;2023-05-13T13:39:39;19.20;99.90
41344;DHT22;27089;50.022;7.604;2023-05-13T13:42:06;19.40;99.90
41344;DHT22;27089;50.022;7.604;2023-05-13T13:44:33;19.60;99.90
41344;DHT22;27089;50.022;7.604;2023-05-13T13:47:02;19.70;99.90
41344;DHT22;27089;50.022;7.604;2023-05-13T13:49:30;19.90;99.90
41344;DHT22;27089;50.022;7.604;2023-05-13T13:51:56;20.00;99.90
41344;DHT22;27089;50.022;7.604;2023-05-13T13:54:23;20.20;99.80
41344;DHT22;27089;50.022;7.604;2023-05-13T13:56:50;20.20;98.70
41344;DHT22;27089;50.022;7.604;2023-05-13T13:59:17;20.30;99.90
41344;DHT22;27089;50.022;7.604;2023-05-13T14:01:44;20.50;99.90
41344;DHT22;27089;50.022;7.604;2023-05-13T14:04:14;20.30;95.90
41344;DHT22;27089;50.022;7.604;2023-05-13T14:06:44;20.30;99.30
41344;DHT22;27089;50.022;7.604;2023-05-13T14:09:11;20.10;95.70
41344;DHT22;27089;50.022;7.604;2023-05-13T14:11:38;20.30;98.40
41344;DHT22;27089;50.022;7.604;2023-05-13T14:14:05;20.10;97.40
41344;DHT22;27089;50.022;7.604;2023-05-13T14:16:32;20.00;99.90
41344;DHT22;27089;50.022;7.604;2023-05-13T14:18:59;19.60;98.60
41344;DHT22;27089;50.022;7.604;2023-05-13T14:21:28;19.30;99.90
41344;DHT22;27089;50.022;7.604;2023-05-13T14:23:55;18.90;99.90
41344;DHT22;27089;50.022;7.604;2023-05-13T14:26:22;18.60;99.90
41344;DHT22;27089;50.022;7.604;2023-05-13T14:28:52;18.40;99.90
41344;DHT22;27089;50.022;7.604;2023-05-13T14:31:19;18.30;99.90
41344;DHT22;27089;50.022;7.604;2023-05-13T14:33:46;18.20;99.90
41344;DHT22;27089;50.022;7.604;2023-05-13T14:36:13;18.30;99.90
41344;DHT22;27089;50.022;7.604;2023-05-13T14:38:42;18.20;99.90
41344;DHT22;27089;50.022;7.604;2023-05-13T14:41:09;17.80;99.90
41344;DHT22;27089;50.022;7.604;2023-05-13T14:43:37;16.80;99.90
41344;DHT22;27089;50.022;7.604;2023-05-13T14:46:04;16.30;99.90
41344;DHT22;27089;50.022;7.604;2023-05-13T14:48:31;16.10;99.90
41344;DHT22;27089;50.022;7.604;2023-05-13T14:50:58;16.20;99.90
41344;DHT22;27089;50.022;7.604;2023-05-13T14:53:25;16.20;99.90
41344;DHT22;27089;50.022;7.604;2023-05-13T14:55:53;16.10;99.90
41344;DHT22;27089;50.022;7.604;2023-05-13T14:58:21;16.00;99.90
41344;DHT22;27089;50.022;7.604;2023-05-13T15:00:47;15.90;99.90
41344;DHT22;27089;50.022;7.604;2023-05-13T15:03:15;15.90;99.90
41344;DHT22;27089;50.022;7.604;2023-05-13T15:05:43;15.80;99.90
41344;DHT22;27089;50.022;7.604;2023-05-13T15:08:11;15.90;99.90
41344;DHT22;27089;50.022;7.604;2023-05-13T15:10:38;16.20;99.90
41344;DHT22;27089;50.022;7.604;2023-05-13T15:13:07;16.30;99.90
41344;DHT22;27089;50.022;7.604;2023-05-13T15:15:33;16.40;99.90
41344;DHT22;27089;50.022;7.604;2023-05-13T15:18:01;16.40;99.90
41344;DHT22;27089;50.022;7.604;2023-05-13T15:20:28;16.40;99.90
41344;DHT22;27089;50.022;7.604;2023-05-13T15:22:55;16.40;99.90
41344;DHT22;27089;50.022;7.604;2023-05-13T15:25:22;16.20;99.90
41344;DHT22;27089;50.022;7.604;2023-05-13T15:27:49;16.20;99.90
41344;DHT22;27089;50.022;7.604;2023-05-13T15:30:18;16.20;99.90
41344;DHT22;27089;50.022;7.604;2023-05-13T15:32:45;16.30;99.90
41344;DHT22;27089;50.022;7.604;2023-05-13T15:35:14;16.30;99.90
41344;DHT22;27089;50.022;7.604;2023-05-13T15:37:41;16.20;99.90
41344;DHT22;27089;50.022;7.604;2023-05-13T15:40:09;16.10;99.90
41344;DHT22;27089;50.022;7.604;2023-05-13T15:42:36;16.20;99.90
41344;DHT22;27089;50.022;7.604;2023-05-13T15:45:04;16.50;99.90
41344;DHT22;27089;50.022;7.604;2023-05-13T15:47:32;16.80;99.90